createdAt,value
2019-03-13T00:00:40.332Z,2.70
2019-03-13T00:03:07.770Z,2.40
2019-03-13T00:05:35.172Z,2.92
2019-03-13T00:08:02.542Z,2.20
2019-03-13T00:10:32.411Z,2.60
2019-03-13T00:12:58.966Z,2.10
2019-03-13T00:15:26.368Z,2.70
2019-03-13T00:17:53.748Z,3.98
2019-03-13T00:20:21.081Z,2.40
2019-03-13T00:22:48.412Z,2.70
2019-03-13T00:25:15.815Z,2.50
2019-03-13T00:27:43.232Z,2.70
2019-03-13T00:30:11.112Z,2.80
2019-03-13T00:32:38.592Z,2.67
2019-03-13T00:35:06.746Z,2.85
2019-03-13T00:37:34.019Z,2.98
2019-03-13T00:40:01.485Z,3.58
2019-03-13T00:42:28.886Z,3.45
2019-03-13T00:44:56.294Z,3.70
2019-03-13T00:47:23.681Z,3.77
2019-03-13T00:49:51.021Z,3.22
2019-03-13T00:52:18.504Z,3.40
2019-03-13T00:54:45.915Z,4.35
2019-03-13T00:57:13.401Z,4.85
2019-03-13T00:59:40.860Z,5.15
2019-03-13T01:02:25.951Z,3.17
2019-03-13T01:05:07.104Z,7.05
2019-03-13T01:07:34.603Z,4.87
2019-03-13T01:10:03.018Z,3.55
2019-03-13T01:12:30.369Z,3.30
2019-03-13T01:14:57.753Z,4.22
2019-03-13T01:17:25.162Z,4.30
2019-03-13T01:19:52.506Z,3.72
2019-03-13T01:22:19.837Z,5.15
2019-03-13T01:24:47.253Z,5.12
2019-03-13T01:27:14.639Z,7.75
2019-03-13T01:29:42.000Z,4.83
2019-03-13T01:32:13.681Z,5.65
2019-03-13T01:34:42.667Z,4.47
2019-03-13T01:37:10.031Z,5.55
2019-03-13T01:39:37.455Z,3.08
2019-03-13T01:42:04.873Z,5.58
2019-03-13T01:44:32.264Z,4.20
2019-03-13T01:46:59.728Z,3.70
2019-03-13T01:49:27.047Z,5.45
2019-03-13T01:51:54.363Z,5.45
2019-03-13T01:54:21.779Z,5.90
2019-03-13T01:56:49.207Z,4.78
2019-03-13T01:59:16.667Z,4.03
2019-03-13T02:01:44.101Z,5.45
2019-03-13T02:04:11.528Z,4.37
2019-03-13T02:06:38.873Z,4.12
2019-03-13T02:09:06.301Z,4.47
2019-03-13T02:11:33.786Z,6.33
2019-03-13T02:14:01.158Z,4.47
2019-03-13T02:16:34.293Z,6.50
2019-03-13T02:19:03.658Z,6.92
2019-03-13T02:21:32.944Z,6.60
2019-03-13T02:24:00.332Z,7.12
2019-03-13T02:26:27.787Z,5.50
2019-03-13T02:28:55.183Z,5.33
2019-03-13T02:31:22.574Z,4.70
2019-03-13T02:33:51.248Z,6.20
2019-03-13T02:36:18.614Z,6.42
2019-03-13T02:38:46.024Z,5.03
2019-03-13T02:41:13.429Z,6.62
2019-03-13T02:43:40.812Z,4.50
2019-03-13T02:46:08.259Z,8.05
2019-03-13T02:48:36.714Z,11.68
2019-03-13T02:51:04.164Z,5.92
2019-03-13T02:53:31.549Z,5.17
2019-03-13T02:56:01.953Z,5.92
2019-03-13T02:58:29.279Z,6.67
2019-03-13T03:00:58.550Z,5.60
2019-03-13T03:03:27.666Z,7.65
2019-03-13T03:05:59.014Z,5.80
2019-03-13T03:08:26.414Z,9.75
2019-03-13T03:10:53.878Z,6.75
2019-03-13T03:13:21.258Z,6.10
2019-03-13T03:15:48.567Z,6.15
2019-03-13T03:18:16.009Z,7.50
2019-03-13T03:20:43.495Z,6.83
2019-03-13T03:23:10.968Z,6.45
2019-03-13T03:25:38.362Z,7.35
2019-03-13T03:28:05.837Z,7.95
2019-03-13T03:30:33.387Z,7.83
2019-03-13T03:33:00.795Z,6.75
2019-03-13T03:35:28.135Z,9.13
2019-03-13T03:37:56.057Z,10.63
2019-03-13T03:43:39.898Z,7.00
2019-03-13T03:46:01.343Z,10.28
2019-03-13T03:48:28.837Z,9.03
2019-03-13T03:50:56.199Z,7.37
2019-03-13T03:53:23.633Z,7.50
2019-03-13T03:55:51.040Z,8.33
2019-03-13T03:58:18.402Z,7.40
2019-03-13T04:00:45.818Z,7.08
2019-03-13T04:03:13.147Z,12.47
2019-03-13T04:05:40.637Z,8.20
2019-03-13T04:08:08.059Z,8.10
2019-03-13T04:10:35.522Z,9.98
2019-03-13T04:13:02.898Z,9.28
2019-03-13T04:15:30.619Z,9.30
2019-03-13T04:17:57.994Z,9.00
2019-03-13T04:20:25.340Z,10.80
2019-03-13T04:22:52.688Z,9.05
2019-03-13T04:25:21.654Z,12.80
2019-03-13T04:27:49.274Z,10.20
2019-03-13T04:30:16.656Z,10.28
2019-03-13T04:32:44.091Z,9.83
2019-03-13T04:35:11.767Z,8.28
2019-03-13T04:37:41.525Z,9.33
2019-03-13T04:40:11.089Z,11.60
2019-03-13T04:42:38.490Z,10.38
2019-03-13T04:45:07.843Z,10.78
2019-03-13T04:47:35.286Z,12.23
2019-03-13T04:50:03.032Z,8.65
2019-03-13T04:52:30.364Z,8.93
2019-03-13T04:54:57.756Z,8.00
2019-03-13T04:57:25.186Z,10.08
2019-03-13T04:59:52.603Z,10.80
2019-03-13T05:02:19.997Z,11.15
2019-03-13T05:04:47.734Z,9.18
2019-03-13T05:07:15.078Z,7.33
2019-03-13T05:09:42.443Z,10.25
2019-03-13T05:12:09.743Z,11.38
2019-03-13T05:14:37.066Z,9.25
2019-03-13T05:17:04.363Z,7.37
2019-03-13T05:19:31.643Z,11.97
2019-03-13T05:21:58.939Z,10.38
2019-03-13T05:24:26.219Z,16.77
2019-03-13T05:26:53.523Z,7.35
2019-03-13T05:29:20.860Z,10.15
2019-03-13T05:31:48.799Z,10.28
2019-03-13T05:34:16.113Z,9.70
2019-03-13T05:36:43.425Z,9.83
2019-03-13T05:39:10.697Z,7.70
2019-03-13T05:41:38.065Z,5.60
2019-03-13T05:44:05.393Z,7.42
2019-03-13T05:46:33.085Z,8.28
2019-03-13T05:49:03.671Z,8.33
2019-03-13T05:51:29.833Z,9.58
2019-03-13T05:53:57.143Z,10.00
2019-03-13T05:56:24.447Z,18.85
2019-03-13T05:58:51.721Z,9.85
2019-03-13T06:01:19.058Z,11.65
2019-03-13T06:03:46.347Z,11.18
2019-03-13T06:06:13.643Z,8.25
2019-03-13T06:08:40.983Z,9.55
2019-03-13T06:11:08.273Z,10.10
2019-03-13T06:13:35.547Z,8.28
2019-03-13T06:16:02.825Z,7.95
2019-03-13T06:18:30.106Z,10.00
2019-03-13T06:20:57.465Z,8.85
2019-03-13T06:23:24.935Z,9.20
2019-03-13T06:25:52.234Z,15.18
2019-03-13T06:28:19.601Z,10.90
2019-03-13T06:30:46.959Z,17.12
2019-03-13T06:33:14.237Z,8.03
2019-03-13T06:35:41.543Z,10.95
2019-03-13T06:38:08.825Z,15.68
2019-03-13T06:40:36.106Z,8.95
2019-03-13T06:43:03.365Z,12.33
2019-03-13T06:45:30.654Z,9.53
2019-03-13T06:47:57.933Z,11.95
2019-03-13T06:50:25.588Z,7.58
2019-03-13T06:52:52.891Z,11.28
2019-03-13T06:55:20.182Z,14.85
2019-03-13T06:57:47.546Z,11.03
2019-03-13T07:00:20.304Z,14.43
2019-03-13T07:03:00.954Z,9.18
2019-03-13T07:05:29.872Z,13.30
2019-03-13T07:08:16.844Z,8.33
2019-03-13T07:10:45.772Z,15.50
2019-03-13T07:13:14.701Z,10.23
2019-03-13T07:15:49.540Z,10.88
2019-03-13T07:18:27.571Z,8.48
2019-03-13T07:20:56.556Z,13.70
2019-03-13T07:23:28.250Z,12.40
2019-03-13T07:26:00.878Z,11.10
2019-03-13T07:28:38.604Z,11.10
2019-03-13T07:31:24.020Z,17.35
2019-03-13T07:33:53.050Z,10.13
2019-03-13T07:36:37.021Z,11.33
2019-03-13T07:39:07.555Z,9.28
2019-03-13T07:41:51.551Z,6.90
2019-03-13T07:44:38.754Z,11.30
2019-03-13T07:47:10.629Z,12.33
2019-03-13T07:49:39.670Z,10.85
2019-03-13T07:52:24.995Z,11.10
2019-03-13T07:55:08.768Z,11.93
2019-03-13T07:57:43.264Z,12.53
2019-03-13T08:00:21.716Z,7.47
2019-03-13T08:02:50.778Z,14.05
2019-03-13T08:05:19.716Z,12.35
2019-03-13T08:07:48.710Z,8.73
2019-03-13T08:10:34.066Z,9.08
2019-03-13T08:13:19.048Z,10.50
2019-03-13T08:15:56.976Z,12.18
2019-03-13T08:18:25.946Z,12.93
2019-03-13T08:21:09.955Z,6.28
2019-03-13T08:23:53.804Z,8.20
2019-03-13T08:26:25.676Z,7.72
2019-03-13T08:29:03.581Z,9.78
2019-03-13T08:31:32.501Z,14.25
2019-03-13T08:34:01.439Z,8.45
2019-03-13T08:36:45.215Z,12.37
2019-03-13T08:39:23.153Z,11.78
2019-03-13T08:41:54.738Z,11.78
2019-03-13T08:44:32.579Z,10.05
2019-03-13T08:47:19.676Z,10.68
2019-03-13T08:49:57.686Z,8.58
2019-03-13T08:52:32.567Z,13.80
2019-03-13T08:55:04.269Z,9.00
2019-03-13T08:57:49.333Z,12.35
2019-03-13T09:00:36.151Z,8.93
2019-03-13T09:03:10.863Z,9.25
2019-03-13T09:05:55.891Z,11.97
2019-03-13T09:08:40.943Z,13.83
2019-03-13T09:11:09.902Z,8.10
2019-03-13T09:13:41.744Z,7.20
2019-03-13T09:16:20.053Z,9.70
2019-03-13T09:18:49.096Z,8.73
2019-03-13T09:21:34.357Z,13.83
2019-03-13T09:24:03.279Z,7.25
2019-03-13T09:26:38.213Z,9.80
2019-03-13T09:29:09.899Z,8.40
2019-03-13T09:31:41.541Z,9.75
2019-03-13T09:34:28.322Z,10.13
2019-03-13T09:37:03.090Z,6.87
2019-03-13T09:39:37.961Z,6.42
2019-03-13T09:42:15.983Z,6.75
2019-03-13T09:44:50.871Z,12.43
2019-03-13T09:47:25.691Z,11.05
2019-03-13T09:50:00.601Z,6.45
2019-03-13T09:52:38.257Z,8.48
2019-03-13T09:55:12.023Z,5.95
2019-03-13T09:57:58.871Z,11.20
2019-03-13T10:00:30.707Z,10.13
2019-03-13T10:03:11.506Z,10.05
2019-03-13T10:05:40.415Z,7.80
2019-03-13T10:08:12.125Z,12.03
2019-03-13T10:10:41.037Z,8.28
2019-03-13T10:13:10.032Z,7.95
2019-03-13T10:15:39.062Z,17.62
2019-03-13T10:18:11.099Z,7.10
2019-03-13T10:20:51.953Z,9.48
2019-03-13T10:23:37.036Z,9.40
2019-03-13T10:26:22.023Z,11.68
2019-03-13T10:28:56.755Z,6.12
2019-03-13T10:31:42.024Z,6.17
2019-03-13T10:34:16.668Z,6.55
2019-03-13T10:37:01.708Z,15.03
2019-03-13T10:39:30.712Z,7.92
2019-03-13T10:42:02.174Z,8.83
2019-03-13T10:44:31.088Z,9.58
2019-03-13T10:47:02.960Z,9.15
2019-03-13T10:49:46.783Z,9.73
2019-03-13T10:52:24.603Z,7.85
2019-03-13T10:54:59.551Z,9.08
2019-03-13T10:57:31.469Z,8.55
2019-03-13T11:00:16.222Z,10.18
2019-03-13T11:03:01.510Z,8.03
2019-03-13T11:05:39.429Z,12.03
2019-03-13T12:23:50.341Z,7.08
2019-03-13T12:26:19.324Z,4.08
2019-03-13T12:28:48.431Z,4.45
2019-03-13T12:31:20.118Z,6.10
2019-03-13T12:33:51.842Z,4.35
2019-03-13T12:36:26.728Z,3.60
2019-03-13T12:38:58.428Z,5.80
2019-03-13T12:41:33.490Z,5.78
2019-03-13T12:44:02.503Z,4.08
2019-03-13T12:46:40.516Z,5.15
2019-03-13T12:49:12.398Z,4.72
2019-03-13T12:51:41.358Z,5.37
2019-03-13T12:54:22.153Z,5.97
2019-03-13T12:57:03.147Z,5.22
2019-03-13T12:59:50.221Z,5.03
2019-03-13T13:02:19.144Z,6.58
2019-03-13T13:04:56.927Z,5.22
2019-03-13T13:07:28.567Z,5.33
2019-03-13T13:09:57.674Z,5.37
2019-03-13T13:12:38.468Z,3.95
2019-03-13T13:15:15.049Z,5.45
2019-03-13T13:18:00.279Z,5.25
2019-03-13T13:20:27.725Z,4.03
2019-03-13T13:22:55.372Z,6.30
2019-03-13T13:25:23.502Z,9.93
2019-03-13T13:27:51.204Z,4.42
2019-03-13T13:30:18.622Z,4.40
2019-03-13T13:32:45.985Z,5.30
2019-03-13T13:35:13.466Z,5.30
2019-03-13T13:37:41.107Z,12.00
2019-03-13T13:40:10.005Z,5.35
2019-03-13T13:42:37.445Z,7.55
2019-03-13T13:45:06.305Z,4.10
2019-03-13T13:47:33.682Z,4.25
2019-03-13T13:50:01.080Z,4.50
2019-03-13T13:52:29.517Z,4.85
2019-03-13T13:54:56.865Z,5.30
2019-03-13T13:57:24.177Z,4.85
2019-03-13T13:59:53.360Z,5.83
2019-03-13T14:02:20.731Z,4.65
2019-03-13T14:04:48.099Z,4.17
2019-03-13T14:07:15.415Z,3.85
2019-03-13T14:09:42.802Z,5.53
2019-03-13T14:12:10.155Z,5.40
2019-03-13T14:14:37.489Z,5.80
2019-03-13T14:17:04.983Z,8.20
2019-03-13T14:19:32.413Z,6.08
2019-03-13T14:21:59.857Z,7.00
2019-03-13T14:24:27.241Z,5.42
2019-03-13T14:26:55.080Z,7.50
2019-03-13T14:29:23.147Z,4.62
2019-03-13T14:31:51.052Z,9.70
2019-03-13T14:34:18.505Z,5.67
2019-03-13T14:36:45.796Z,3.95
2019-03-13T14:39:13.187Z,5.65
2019-03-13T14:41:40.523Z,3.10
2019-03-13T14:44:07.814Z,4.78
2019-03-13T14:46:35.183Z,2.60
2019-03-13T14:49:02.506Z,2.90
2019-03-13T14:51:29.834Z,4.17
2019-03-13T14:53:57.139Z,3.30
2019-03-13T14:56:24.484Z,3.05
2019-03-13T14:58:51.877Z,3.58
2019-03-13T15:01:19.259Z,3.45
2019-03-13T15:03:46.696Z,2.60
2019-03-13T15:06:14.085Z,3.30
2019-03-13T15:08:41.399Z,2.70
2019-03-13T15:11:08.757Z,3.47
2019-03-13T15:13:36.160Z,1.90
2019-03-13T15:16:03.488Z,2.80
2019-03-13T15:18:30.782Z,2.20
2019-03-13T15:20:58.110Z,2.98
2019-03-13T15:23:25.463Z,2.70
2019-03-13T15:25:52.761Z,2.17
2019-03-13T15:28:20.204Z,2.40
2019-03-13T15:30:47.568Z,3.42
2019-03-13T15:33:15.149Z,2.60
2019-03-13T15:35:42.523Z,3.62
2019-03-13T15:38:09.876Z,2.95
2019-03-13T15:40:37.216Z,2.92
2019-03-13T15:43:04.664Z,3.00
2019-03-13T15:45:32.685Z,2.80
2019-03-13T15:48:00.050Z,2.58
2019-03-13T15:50:27.435Z,2.98
2019-03-13T15:52:54.792Z,3.50
2019-03-13T15:55:22.098Z,3.62
2019-03-13T15:57:49.462Z,3.45
2019-03-13T16:00:17.796Z,3.00
2019-03-13T16:02:45.153Z,2.42
2019-03-13T16:05:12.621Z,3.92
2019-03-13T16:07:39.904Z,3.70
2019-03-13T16:10:08.787Z,3.00
2019-03-13T16:12:36.064Z,3.87
2019-03-13T16:15:04.377Z,3.27
2019-03-13T16:17:31.742Z,2.80
2019-03-13T16:19:59.040Z,4.25
2019-03-13T16:22:26.320Z,2.75
2019-03-13T16:24:53.631Z,3.10
2019-03-13T16:27:20.989Z,3.60
2019-03-13T16:29:48.430Z,3.08
2019-03-13T16:32:17.302Z,2.90
2019-03-13T16:34:44.784Z,3.77
2019-03-13T16:37:12.169Z,3.05
2019-03-13T16:39:39.632Z,3.70
2019-03-13T16:42:06.936Z,5.05
2019-03-13T16:44:34.219Z,3.47
2019-03-13T16:47:01.595Z,5.37
2019-03-13T16:49:31.493Z,4.60
2019-03-13T16:51:58.935Z,5.70
2019-03-13T16:54:26.519Z,11.80
2019-03-13T16:56:53.903Z,6.10
2019-03-13T16:59:21.187Z,5.37
2019-03-13T17:01:48.468Z,5.95
2019-03-13T17:04:15.801Z,6.37
2019-03-13T17:06:43.086Z,6.78
